createdAt,value
2018-01-27T00:02:15.762Z,12.93
2018-01-27T00:04:43.969Z,10.17
2018-01-27T00:07:11.414Z,9.23
2018-01-27T00:09:38.844Z,10.27
2018-01-27T00:12:07.053Z,13.20
2018-01-27T00:14:34.512Z,11.67
2018-01-27T00:17:01.943Z,9.03
2018-01-27T00:19:29.386Z,9.47
2018-01-27T00:21:57.605Z,14.70
2018-01-27T00:24:25.040Z,10.77
2018-01-27T00:26:52.498Z,10.87
2018-01-27T00:29:20.698Z,14.17
2018-01-27T00:31:48.892Z,10.60
2018-01-27T00:34:16.347Z,11.70
2018-01-27T00:36:43.794Z,10.30
2018-01-27T00:39:11.237Z,21.53
2018-01-27T00:41:38.668Z,12.80
2018-01-27T00:44:06.096Z,14.50
2018-01-27T00:46:33.586Z,13.27
2018-01-27T00:49:01.890Z,11.03
2018-01-27T00:51:29.296Z,12.40
2018-01-27T00:53:57.500Z,10.10
2018-01-27T00:56:24.942Z,16.20
2018-01-27T00:58:53.158Z,17.53
2018-01-27T01:01:20.606Z,13.37
2018-01-27T01:03:48.052Z,12.30
2018-01-27T01:06:15.486Z,10.13
2018-01-27T01:08:43.702Z,13.90
2018-01-27T01:11:11.151Z,12.13
2018-01-27T01:13:38.594Z,8.90
2018-01-27T01:16:06.022Z,10.57
2018-01-27T01:18:34.237Z,13.23
2018-01-27T01:21:01.679Z,9.83
2018-01-27T01:23:29.101Z,9.60
2018-01-27T01:25:56.548Z,9.50
2018-01-27T01:28:23.998Z,9.90
2018-01-27T01:30:51.448Z,9.00
2018-01-27T01:33:18.895Z,11.47
2018-01-27T01:35:46.350Z,8.93
2018-01-27T01:38:13.794Z,14.67
2018-01-27T01:40:41.252Z,12.03
2018-01-27T01:43:14.400Z,11.67
2018-01-27T01:45:42.619Z,10.77
2018-01-27T01:48:10.059Z,11.70
2018-01-27T01:50:37.510Z,10.03
2018-01-27T01:53:04.938Z,20.93
2018-01-27T01:55:32.385Z,10.30
2018-01-27T01:57:59.827Z,12.60
2018-01-27T02:00:27.276Z,11.80
2018-01-27T02:02:54.700Z,8.70
2018-01-27T02:05:22.140Z,16.80
2018-01-27T02:07:50.351Z,10.40
2018-01-27T02:10:17.782Z,9.53
2018-01-27T02:12:45.227Z,9.50
2018-01-27T02:15:13.446Z,17.40
2018-01-27T02:17:40.872Z,15.77
2018-01-27T02:20:08.317Z,12.07
2018-01-27T02:22:36.527Z,12.50
2018-01-27T02:25:03.979Z,14.03
2018-01-27T02:27:31.418Z,11.97
2018-01-27T02:29:58.861Z,10.47
2018-01-27T02:32:27.063Z,8.73
2018-01-27T02:34:54.526Z,13.33
2018-01-27T02:37:21.963Z,12.60
2018-01-27T02:39:49.411Z,11.17
2018-01-27T02:42:17.622Z,8.93
2018-01-27T02:44:45.066Z,13.00
2018-01-27T02:47:12.522Z,8.33
2018-01-27T02:49:39.973Z,10.47
2018-01-27T02:52:07.430Z,11.80
2018-01-27T02:54:34.871Z,12.10
2018-01-27T02:57:03.107Z,9.67
2018-01-27T02:59:30.555Z,12.80
2018-01-27T03:01:58.006Z,10.33
2018-01-27T03:04:25.455Z,11.20
2018-01-27T03:06:52.904Z,11.00
2018-01-27T03:09:20.340Z,9.93
2018-01-27T03:11:48.541Z,13.60
2018-01-27T03:14:15.974Z,9.73
2018-01-27T03:16:43.419Z,8.77
2018-01-27T03:19:11.617Z,11.60
2018-01-27T03:21:39.063Z,8.33
2018-01-27T03:24:06.495Z,9.40
2018-01-27T03:26:34.713Z,11.40
2018-01-27T03:29:02.142Z,11.30
2018-01-27T03:31:30.363Z,10.90
2018-01-27T03:33:57.814Z,9.17
2018-01-27T03:36:25.246Z,11.40
2018-01-27T03:38:52.681Z,15.23
2018-01-27T03:41:20.875Z,11.60
2018-01-27T03:43:48.312Z,10.67
2018-01-27T03:46:16.508Z,11.17
2018-01-27T03:48:43.948Z,10.70
2018-01-27T03:51:12.176Z,10.60
2018-01-27T03:53:39.593Z,14.80
2018-01-27T03:56:07.034Z,9.73
2018-01-27T03:58:35.232Z,13.43
2018-01-27T04:01:02.680Z,10.80
2018-01-27T04:03:30.119Z,15.77
2018-01-27T04:05:58.338Z,12.90
2018-01-27T04:08:25.789Z,11.30
2018-01-27T04:10:53.217Z,21.63
2018-01-27T04:13:21.438Z,11.50
2018-01-27T04:15:49.651Z,13.47
2018-01-27T04:18:17.088Z,14.60
2018-01-27T04:20:44.526Z,10.57
2018-01-27T04:23:11.982Z,11.10
2018-01-27T04:25:39.430Z,16.20
2018-01-27T04:28:06.881Z,8.77
2018-01-27T04:30:34.331Z,11.00
2018-01-27T04:33:01.790Z,15.40
2018-01-27T04:35:29.226Z,10.93
2018-01-27T04:37:57.448Z,11.73
2018-01-27T04:40:24.891Z,14.93
2018-01-27T04:42:52.333Z,19.60
2018-01-27T04:45:19.799Z,13.10
2018-01-27T04:47:47.244Z,11.47
2018-01-27T04:50:14.679Z,15.63
2018-01-27T04:52:42.903Z,18.30
2018-01-27T04:55:10.334Z,10.10
2018-01-27T04:57:37.763Z,13.97
2018-01-27T05:00:05.966Z,13.23
2018-01-27T05:02:33.428Z,14.77
2018-01-27T05:05:00.960Z,15.00
2018-01-27T05:07:29.186Z,14.77
2018-01-27T05:09:56.625Z,14.83
2018-01-27T05:12:24.087Z,17.63
2018-01-27T05:14:51.522Z,14.93
2018-01-27T05:17:18.975Z,12.40
2018-01-27T05:19:47.177Z,13.33
2018-01-27T05:22:14.616Z,18.07
2018-01-27T05:24:42.053Z,18.43
2018-01-27T05:27:10.264Z,10.73
2018-01-27T05:29:37.721Z,9.53
2018-01-27T05:32:05.167Z,13.80
2018-01-27T05:34:32.602Z,12.03
2018-01-27T05:37:00.875Z,12.40
2018-01-27T05:39:28.301Z,13.73
2018-01-27T05:41:55.742Z,19.57
2018-01-27T05:44:23.186Z,14.43
2018-01-27T05:46:50.623Z,9.87
2018-01-27T05:49:18.067Z,14.27
2018-01-27T05:51:46.282Z,13.83
2018-01-27T05:54:13.716Z,12.43
2018-01-27T05:56:41.148Z,12.13
2018-01-27T05:59:09.371Z,12.57
2018-01-27T06:01:36.824Z,16.57
2018-01-27T06:04:04.256Z,12.87
2018-01-27T06:06:31.685Z,15.73
2018-01-27T06:08:59.129Z,10.47
2018-01-27T06:11:26.565Z,13.10
2018-01-27T06:13:54.003Z,12.10
2018-01-27T06:16:21.446Z,10.10
2018-01-27T06:18:48.907Z,13.73
2018-01-27T06:21:16.355Z,12.27
2018-01-27T06:23:43.804Z,11.93
2018-01-27T06:26:11.245Z,11.97
2018-01-27T06:28:39.452Z,9.40
2018-01-27T06:31:06.894Z,9.60
2018-01-27T06:33:34.337Z,11.87
2018-01-27T06:36:02.537Z,13.73
2018-01-27T06:38:29.991Z,11.90
2018-01-27T06:40:57.426Z,14.33
2018-01-27T06:43:25.646Z,9.13
2018-01-27T06:45:53.084Z,8.40
2018-01-27T06:48:20.526Z,12.73
2018-01-27T06:50:47.977Z,8.37
2018-01-27T06:53:16.176Z,12.10
2018-01-27T06:55:43.621Z,10.30
2018-01-27T06:58:11.065Z,11.03
2018-01-27T07:00:39.277Z,11.80
2018-01-27T07:03:06.717Z,11.97
2018-01-27T07:05:34.165Z,10.03
2018-01-27T07:08:01.594Z,9.73
2018-01-27T07:10:29.042Z,12.20
2018-01-27T07:12:56.487Z,11.20
2018-01-27T07:15:23.930Z,11.73
2018-01-27T07:17:51.374Z,12.80
2018-01-27T07:20:18.831Z,23.50
2018-01-27T07:22:46.269Z,10.10
2018-01-27T07:25:13.705Z,16.77
2018-01-27T07:27:41.910Z,15.53
2018-01-27T07:30:09.368Z,13.47
2018-01-27T07:32:36.809Z,12.00
2018-01-27T07:35:04.355Z,11.57
2018-01-27T07:37:32.545Z,12.73
2018-01-27T07:39:59.989Z,11.53
2018-01-27T07:42:28.206Z,11.27
2018-01-27T07:44:55.645Z,10.27
2018-01-27T07:47:23.076Z,11.80
2018-01-27T07:49:51.284Z,10.50
2018-01-27T07:52:18.731Z,12.17
2018-01-27T07:54:46.169Z,14.53
2018-01-27T07:57:14.379Z,13.10
2018-01-27T07:59:41.831Z,13.47
2018-01-27T08:02:09.276Z,12.30
2018-01-27T08:04:36.731Z,12.67
2018-01-27T08:07:04.309Z,15.53
2018-01-27T08:09:31.743Z,20.80
2018-01-27T08:11:59.177Z,12.77
2018-01-27T08:14:27.398Z,10.97
2018-01-27T08:16:54.843Z,11.40
2018-01-27T08:19:22.291Z,12.57
2018-01-27T08:21:49.734Z,13.93
2018-01-27T08:24:17.944Z,11.43
2018-01-27T08:26:45.398Z,14.57
2018-01-27T08:29:12.829Z,11.43
2018-01-27T08:31:41.041Z,13.97
2018-01-27T08:34:08.492Z,14.13
2018-01-27T08:36:35.936Z,12.67
2018-01-27T08:39:03.365Z,12.77
2018-01-27T08:41:31.565Z,13.30
2018-01-27T08:43:59.003Z,13.00
2018-01-27T08:46:27.223Z,12.47
2018-01-27T08:48:54.672Z,15.30
2018-01-27T08:51:22.113Z,13.20
2018-01-27T08:53:49.560Z,14.87
2018-01-27T08:56:17.012Z,16.83
2018-01-27T08:58:45.218Z,15.40
2018-01-27T09:01:12.654Z,18.20
2018-01-27T09:03:40.106Z,22.20
2018-01-27T09:06:07.558Z,12.27
2018-01-27T09:08:35.770Z,15.00
2018-01-27T09:11:03.218Z,12.67
2018-01-27T09:13:30.653Z,16.13
2018-01-27T09:15:58.110Z,13.80
2018-01-27T09:18:25.546Z,13.90
2018-01-27T09:20:53.748Z,13.47
2018-01-27T09:23:21.199Z,13.47
2018-01-27T09:25:48.632Z,13.90
2018-01-27T09:28:16.836Z,14.80
2018-01-27T09:30:44.280Z,14.30
2018-01-27T09:33:11.733Z,12.70
2018-01-27T09:35:39.955Z,11.47
2018-01-27T09:38:07.394Z,14.90
2018-01-27T09:40:34.818Z,9.60
2018-01-27T09:43:03.044Z,15.90
2018-01-27T09:45:30.602Z,42.87
2018-01-27T09:47:58.049Z,31.13
2018-01-27T09:50:25.505Z,27.93
2018-01-27T09:52:52.963Z,15.60
2018-01-27T09:55:20.435Z,13.63
2018-01-27T09:57:47.840Z,16.50
2018-01-27T10:00:16.037Z,14.33
2018-01-27T10:02:43.490Z,11.50
2018-01-27T10:05:10.926Z,16.43
2018-01-27T10:07:39.142Z,15.00
2018-01-27T10:10:06.583Z,13.77
2018-01-27T10:12:34.029Z,15.40
2018-01-27T10:15:01.498Z,17.37
2018-01-27T10:17:28.965Z,17.80
2018-01-27T10:19:56.398Z,18.23
2018-01-27T10:22:24.677Z,18.80
2018-01-27T10:24:52.115Z,15.00
2018-01-27T10:27:20.464Z,20.93
2018-01-27T10:29:59.926Z,16.63
2018-01-27T10:32:27.473Z,16.80
2018-01-27T10:34:55.215Z,24.50
2018-01-27T10:37:22.662Z,16.53
2018-01-27T10:39:51.125Z,15.97
2018-01-27T10:42:18.818Z,17.70
2018-01-27T10:44:47.210Z,23.67
2018-01-27T10:47:14.858Z,16.70
2018-01-27T10:49:42.493Z,22.83
2018-01-27T10:52:10.132Z,20.83
2018-01-27T10:54:37.578Z,18.60
2018-01-27T10:57:05.895Z,25.83
2018-01-27T10:59:33.472Z,20.50
2018-01-27T11:02:00.993Z,24.17
2018-01-27T11:04:28.527Z,22.90
2018-01-27T11:06:55.987Z,20.60
2018-01-27T11:09:23.604Z,23.00
2018-01-27T11:11:51.184Z,19.13
2018-01-27T11:14:18.779Z,21.20
2018-01-27T11:16:46.347Z,32.30
2018-01-27T11:19:14.592Z,33.50
2018-01-27T11:21:42.161Z,28.30
2018-01-27T11:24:09.828Z,29.30
2018-01-27T11:26:37.271Z,34.07
2018-01-27T11:29:04.709Z,35.37
2018-01-27T11:31:32.334Z,41.33
2018-01-27T11:36:53.494Z,35.60
2018-01-27T11:39:21.004Z,36.10
2018-01-27T11:41:49.446Z,38.10
2018-01-27T11:44:16.900Z,34.60
2018-01-27T11:46:44.452Z,29.43
2018-01-27T11:49:12.060Z,30.27
2018-01-27T11:51:39.559Z,38.10
2018-01-27T11:54:07.169Z,34.80
2018-01-27T11:56:34.617Z,43.57
2018-01-27T11:59:02.205Z,37.40
2018-01-27T12:01:30.646Z,36.17
2018-01-27T12:03:58.232Z,35.13
2018-01-27T12:06:25.659Z,35.43
2018-01-27T12:08:53.256Z,32.90
2018-01-27T12:11:20.696Z,37.20
2018-01-27T12:13:48.182Z,30.73
2018-01-27T12:16:15.746Z,39.13
2018-01-27T12:18:44.243Z,33.37
2018-01-27T12:21:12.454Z,30.63
2018-01-27T12:23:39.910Z,34.10
2018-01-27T12:26:07.383Z,43.20
2018-01-27T12:28:35.645Z,31.53
2018-01-27T12:31:03.303Z,31.10
2018-01-27T12:33:30.800Z,32.83
2018-01-27T12:35:58.276Z,39.50
2018-01-27T12:38:26.492Z,31.80
2018-01-27T12:40:54.673Z,36.20
2018-01-27T12:43:22.736Z,39.30
2018-01-27T12:45:50.240Z,28.80
2018-01-27T12:48:18.526Z,31.50
2018-01-27T12:50:46.775Z,23.57
2018-01-27T12:53:15.289Z,28.90
2018-01-27T12:55:43.602Z,31.27
2018-01-27T12:58:11.199Z,25.00
2018-01-27T13:00:38.706Z,26.27
2018-01-27T13:03:06.224Z,17.70
2018-01-27T13:05:33.942Z,23.73
2018-01-27T13:08:01.589Z,19.80
2018-01-27T13:10:29.118Z,22.97
2018-01-27T13:12:56.770Z,16.30
2018-01-27T13:15:24.422Z,23.40
2018-01-27T13:17:51.888Z,19.40
2018-01-27T13:20:19.514Z,23.60
2018-01-27T13:22:47.019Z,17.97
2018-01-27T13:25:14.520Z,18.40
2018-01-27T13:27:42.092Z,36.57
2018-01-27T13:30:09.585Z,19.80
2018-01-27T13:32:37.910Z,18.50
2018-01-27T13:35:05.380Z,15.97
2018-01-27T13:37:32.830Z,18.33
2018-01-27T13:40:00.333Z,21.10
2018-01-27T13:42:27.829Z,21.10
2018-01-27T13:44:56.510Z,22.93
2018-01-27T13:47:24.840Z,18.40
2018-01-27T13:49:52.303Z,16.87
2018-01-27T13:52:19.838Z,24.60
2018-01-27T13:54:47.521Z,18.63
2018-01-27T13:57:14.958Z,20.97
2018-01-27T13:59:42.410Z,26.90
2018-01-27T14:02:09.851Z,19.03
2018-01-27T14:04:37.301Z,24.00
2018-01-27T14:07:04.738Z,21.23
2018-01-27T14:09:32.211Z,18.20
2018-01-27T14:11:59.647Z,19.33
2018-01-27T14:14:27.862Z,23.13
2018-01-27T14:16:55.297Z,26.70
2018-01-27T14:19:22.733Z,15.70
2018-01-27T14:21:50.953Z,19.30
2018-01-27T14:24:18.486Z,23.50
2018-01-27T14:26:49.131Z,28.73
2018-01-27T14:29:16.558Z,24.30
2018-01-27T14:31:44.792Z,25.23
2018-01-27T14:34:12.355Z,21.80
2018-01-27T14:36:40.067Z,19.10
2018-01-27T14:39:07.513Z,18.00
2018-01-27T14:41:35.971Z,20.80
2018-01-27T14:44:03.625Z,17.63
2018-01-27T14:46:31.199Z,27.80
2018-01-27T14:48:58.785Z,27.30
2018-01-27T14:51:27.244Z,16.83
2018-01-27T14:53:54.669Z,21.20
2018-01-27T14:56:22.274Z,18.33
2018-01-27T14:58:49.925Z,20.03
2018-01-27T15:01:17.358Z,19.57
2018-01-27T15:03:44.801Z,18.13
2018-01-27T15:06:12.249Z,26.73
2018-01-27T15:08:39.851Z,22.87
2018-01-27T15:11:07.286Z,28.33
2018-01-27T15:13:34.959Z,21.03
2018-01-27T15:16:02.612Z,23.33
2018-01-27T15:18:30.299Z,22.13
2018-01-27T15:20:58.008Z,19.83
2018-01-27T15:23:25.447Z,19.27
2018-01-27T15:25:52.964Z,16.07
2018-01-27T15:28:20.411Z,20.00
2018-01-27T15:30:47.858Z,22.63
2018-01-27T15:33:15.427Z,24.33
2018-01-27T15:35:43.038Z,22.60
2018-01-27T15:38:11.465Z,21.77
2018-01-27T15:40:39.025Z,18.60
2018-01-27T15:43:06.583Z,23.20
2018-01-27T15:45:34.151Z,22.10
2018-01-27T15:48:01.702Z,22.20
2018-01-27T15:50:29.295Z,25.50
2018-01-27T15:52:56.975Z,24.97
2018-01-27T15:55:25.551Z,18.93
2018-01-27T15:57:53.269Z,20.63
2018-01-27T16:00:20.789Z,18.13
2018-01-27T16:02:49.043Z,20.53
2018-01-27T16:05:16.469Z,19.73
2018-01-27T16:07:44.812Z,16.90
2018-01-27T16:10:12.270Z,21.20
2018-01-27T16:12:39.839Z,18.80
2018-01-27T16:15:07.430Z,17.20
2018-01-27T16:17:34.980Z,22.07
2018-01-27T16:20:02.541Z,16.00
2018-01-27T16:22:29.983Z,15.97
2018-01-27T16:24:57.571Z,18.17
2018-01-27T16:27:25.242Z,19.10
2018-01-27T16:29:52.834Z,20.20
2018-01-27T16:32:21.147Z,16.67
2018-01-27T16:34:48.705Z,20.60
2018-01-27T16:37:16.369Z,22.00
2018-01-27T16:39:43.793Z,14.60
2018-01-27T16:42:11.245Z,21.23
2018-01-27T16:44:39.570Z,20.50
2018-01-27T16:47:07.057Z,18.57
2018-01-27T16:49:34.506Z,15.83
2018-01-27T16:52:02.003Z,16.13
2018-01-27T16:54:30.214Z,20.23
2018-01-27T16:56:57.704Z,14.77
2018-01-27T16:59:25.150Z,16.63
2018-01-27T17:01:52.597Z,18.50
2018-01-27T17:04:21.489Z,18.13
2018-01-27T17:06:49.108Z,17.80
2018-01-27T17:09:16.582Z,16.57
2018-01-27T17:11:44.091Z,11.67
2018-01-27T17:14:12.160Z,13.60
2018-01-27T17:16:39.642Z,20.93
2018-01-27T17:19:07.863Z,11.00
2018-01-27T17:21:35.297Z,15.87
2018-01-27T17:24:02.751Z,13.10
2018-01-27T17:26:30.186Z,16.03
2018-01-27T17:28:58.385Z,14.73
2018-01-27T17:31:25.829Z,14.03
2018-01-27T17:33:54.046Z,14.03
2018-01-27T17:36:21.488Z,14.47
2018-01-27T17:38:48.966Z,12.27
2018-01-27T17:41:16.499Z,12.17
2018-01-27T17:43:43.928Z,12.63
2018-01-27T17:46:12.174Z,13.37
2018-01-27T17:48:39.620Z,10.30
2018-01-27T17:51:07.049Z,13.33
2018-01-27T17:53:34.506Z,13.50
2018-01-27T17:56:01.941Z,11.77
2018-01-27T17:58:29.385Z,15.03
2018-01-27T18:00:57.585Z,16.40
2018-01-27T18:03:25.035Z,19.10
2018-01-27T18:05:52.474Z,11.40
2018-01-27T18:08:20.698Z,11.83
2018-01-27T18:10:48.136Z,10.67
2018-01-27T18:13:15.583Z,13.87
2018-01-27T18:15:43.014Z,12.60
2018-01-27T18:18:11.231Z,11.00
2018-01-27T18:20:38.661Z,19.10
2018-01-27T18:23:06.097Z,17.63
2018-01-27T18:25:34.319Z,11.27
2018-01-27T18:28:01.764Z,12.50
2018-01-27T18:30:29.200Z,12.83
2018-01-27T18:32:57.431Z,14.90
2018-01-27T18:35:24.870Z,26.70
2018-01-27T18:37:52.317Z,11.67
2018-01-27T18:40:19.762Z,15.87
2018-01-27T18:42:47.203Z,16.33
2018-01-27T18:45:15.410Z,15.93
2018-01-27T18:47:42.856Z,12.83
2018-01-27T18:50:10.297Z,24.83
2018-01-27T18:52:37.732Z,18.47
2018-01-27T18:55:05.954Z,17.17
2018-01-27T18:57:33.375Z,19.40
2018-01-27T19:00:01.615Z,17.80
2018-01-27T19:02:29.050Z,16.07
2018-01-27T19:04:56.493Z,22.90
2018-01-27T19:07:23.939Z,19.87
2018-01-27T19:09:51.385Z,14.77
2018-01-27T19:12:19.592Z,17.80
2018-01-27T19:14:47.045Z,13.90
2018-01-27T19:17:14.496Z,18.30
2018-01-27T19:19:41.960Z,13.87
2018-01-27T19:22:09.390Z,15.90
2018-01-27T19:24:36.846Z,23.93
2018-01-27T19:27:05.054Z,21.13
2018-01-27T19:29:32.505Z,20.53
2018-01-27T19:31:59.934Z,27.10
2018-01-27T19:34:28.141Z,16.30
2018-01-27T19:36:55.595Z,17.30
2018-01-27T19:39:23.042Z,19.93
2018-01-27T19:41:50.483Z,10.77
2018-01-27T19:44:18.713Z,11.47
2018-01-27T19:46:46.159Z,12.90
2018-01-27T19:49:13.597Z,11.47
2018-01-27T19:51:41.042Z,12.60
2018-01-27T19:54:08.490Z,17.10
2018-01-27T19:56:36.713Z,13.47
2018-01-27T19:59:04.138Z,15.47
2018-01-27T20:01:31.585Z,15.53
2018-01-27T20:03:59.008Z,12.93
2018-01-27T20:06:26.449Z,10.53
2018-01-27T20:08:53.902Z,14.47
2018-01-27T20:11:21.354Z,13.33
2018-01-27T20:13:48.791Z,8.37
2018-01-27T20:16:16.252Z,11.20
2018-01-27T20:18:43.686Z,13.27
2018-01-27T20:21:11.163Z,11.23
2018-01-27T20:23:38.599Z,10.93
2018-01-27T20:26:06.058Z,13.43
2018-01-27T20:28:33.530Z,6.73
2018-01-27T20:31:00.994Z,8.97
2018-01-27T20:33:28.433Z,6.43
2018-01-27T20:35:55.881Z,9.83
2018-01-27T20:38:23.304Z,9.00
2018-01-27T20:40:50.757Z,11.10
2018-01-27T20:43:18.199Z,10.20
2018-01-27T20:45:45.647Z,11.20
2018-01-27T20:48:13.094Z,9.37
2018-01-27T20:50:40.549Z,12.53
2018-01-27T20:53:07.980Z,11.30
2018-01-27T20:55:35.459Z,15.00
2018-01-27T20:58:02.893Z,11.00
2018-01-27T21:00:30.332Z,10.63
2018-01-27T21:02:58.558Z,11.27
2018-01-27T21:05:26.023Z,12.27
2018-01-27T21:07:53.440Z,9.73
2018-01-27T21:10:20.878Z,13.90
2018-01-27T21:12:49.097Z,12.80
2018-01-27T21:15:16.614Z,15.20
2018-01-27T21:17:44.036Z,15.83
2018-01-27T21:20:11.482Z,16.03
2018-01-27T21:22:38.931Z,10.57
2018-01-27T21:25:06.374Z,14.00
2018-01-27T21:27:33.838Z,11.10
2018-01-27T21:30:01.268Z,8.80
2018-01-27T21:32:29.485Z,10.87
2018-01-27T21:34:56.930Z,12.23
2018-01-27T21:37:25.217Z,11.97
2018-01-27T21:39:52.660Z,12.70
2018-01-27T21:42:20.094Z,13.40
2018-01-27T21:44:47.524Z,9.00
2018-01-27T21:47:14.973Z,12.27
2018-01-27T21:49:42.426Z,11.47
2018-01-27T21:52:09.863Z,14.03
2018-01-27T21:54:37.314Z,15.80
2018-01-27T21:57:04.763Z,11.20
2018-01-27T21:59:32.207Z,11.03
2018-01-27T22:01:59.651Z,12.50
2018-01-27T22:04:27.854Z,13.67
2018-01-27T22:06:55.294Z,13.23
2018-01-27T22:09:22.724Z,12.77
2018-01-27T22:11:50.940Z,9.80
2018-01-27T22:14:18.372Z,10.93
2018-01-27T22:16:45.817Z,12.30
2018-01-27T22:19:14.014Z,10.80
2018-01-27T22:21:41.456Z,11.27
2018-01-27T22:24:09.672Z,11.00
2018-01-27T22:26:37.122Z,9.70
2018-01-27T22:29:04.553Z,11.57
2018-01-27T22:31:31.996Z,11.70
2018-01-27T22:34:00.203Z,13.90
2018-01-27T22:36:27.641Z,10.50
2018-01-27T22:38:55.077Z,13.63
2018-01-27T22:41:23.274Z,8.10
2018-01-27T22:43:50.725Z,10.70
2018-01-27T22:46:18.929Z,10.00
2018-01-27T22:48:46.370Z,9.97
2018-01-27T22:51:13.798Z,10.30
2018-01-27T22:53:42.018Z,9.63
2018-01-27T22:56:09.434Z,7.00
2018-01-27T22:58:37.637Z,8.77
2018-01-27T23:01:10.665Z,12.17
2018-01-27T23:03:38.112Z,9.80
2018-01-27T23:06:05.555Z,8.93
2018-01-27T23:08:33.013Z,10.40
2018-01-27T23:11:00.449Z,10.10
2018-01-27T23:13:27.898Z,10.57
2018-01-27T23:15:55.330Z,9.77
2018-01-27T23:18:22.769Z,8.27
2018-01-27T23:20:50.213Z,6.60
2018-01-27T23:23:17.661Z,9.40
2018-01-27T23:25:45.097Z,8.97
2018-01-27T23:28:12.545Z,6.77
2018-01-27T23:30:39.987Z,9.67
2018-01-27T23:33:08.199Z,5.40
2018-01-27T23:35:35.638Z,8.87
2018-01-27T23:38:03.072Z,11.93
2018-01-27T23:40:31.302Z,9.40
2018-01-27T23:42:58.750Z,10.87
2018-01-27T23:45:26.194Z,10.00
2018-01-27T23:47:53.630Z,10.33
2018-01-27T23:50:21.074Z,10.17
2018-01-27T23:52:49.294Z,6.30
2018-01-27T23:55:16.752Z,7.43
2018-01-27T23:57:44.230Z,5.77
